Time;durP1;ratioP1;P1;durP2;ratioP2;P2;SDS_P1;SDS_P2;PMS_P1;PMS_P2;Temp;Humidity;BMP_temperature;BMP_pressure;BME280_temperature;BME280_humidity;BME280_pressure;Samples;Min_cycle;Max_cycle;Signal;HPM_P1;HPM_P2
2023/08/08 00:01:24;;;;;;;0.70;0.40;;;;;;;13.49;83.81;98306.55;103096;1287;600886;-22
2023/08/08 00:03:52;;;;;;;0.90;0.60;;;;;;;14.06;82.97;98307.61;104923;1266;61183;-21
2023/08/08 00:12:33;;;;;;;0.60;0.60;;;;;;;14.21;80.84;98301.37;102656;1295;600276;-22
2023/08/08 00:15:01;;;;;;;1.40;0.50;;;;;;;13.92;81.06;98304.42;104861;1270;61204;-21
2023/08/08 00:17:28;;;;;;;0.70;0.50;;;;;;;13.67;81.86;98310.52;104822;1271;61122;-21
2023/08/08 00:19:56;;;;;;;0.40;0.30;;;;;;;13.96;82.51;98311.16;104828;1272;70994;-24
2023/08/08 00:22:24;;;;;;;0.50;0.50;;;;;;;14.33;81.09;98313.95;104972;1264;73030;-21
2023/08/08 00:24:52;;;;;;;0.70;0.60;;;;;;;14.29;80.03;98315.43;104874;1270;72702;-22
2023/08/08 00:35:04;;;;;;;4.80;0.50;;;;;;;13.33;86.68;98338.69;102630;1297;600260;-21
2023/08/08 00:37:32;;;;;;;1.20;0.70;;;;;;;13.53;85.59;98346.89;104792;1265;61174;-22
2023/08/08 00:40:00;;;;;;;1.10;0.70;;;;;;;13.33;86.32;98348.08;104853;1266;61121;-22
2023/08/08 00:50:13;;;;;;;2.60;1.20;;;;;;;13.64;85.57;98347.86;102704;1290;600074;-22
2023/08/08 00:52:41;;;;;;;1.60;1.40;;;;;;;13.52;85.36;98348.55;104766;1266;61152;-21
2023/08/08 00:55:09;;;;;;;4.30;1.20;;;;;;;13.18;86.82;98350.26;104886;1267;61093;-22
2023/08/08 00:57:38;;;;;;;1.40;0.90;;;;;;;12.94;87.87;98351.73;104813;1267;71029;-22
2023/08/08 01:00:07;;;;;;;2.10;1.20;;;;;;;12.83;89.23;98348.80;104881;1267;74326;-23
2023/08/08 01:02:34;;;;;;;1.10;1.00;;;;;;;13.24;87.57;98345.70;104768;1267;72454;-22
2023/08/08 01:05:02;;;;;;;3.00;1.30;;;;;;;13.30;86.61;98343.80;102840;1263;2811911;-21
2023/08/08 01:15:12;;;;;;;1.30;1.20;;;;;;;12.87;88.86;98361.52;102620;1293;600248;-22
2023/08/08 01:17:40;;;;;;;2.10;1.20;;;;;;;13.08;87.49;98366.10;104785;1267;61039;-22
2023/08/08 01:27:47;;;;;;;2.00;1.50;;;;;;;12.79;89.41;98383.23;102595;1292;600157;-21
2023/08/08 01:37:25;;;;;;;4.10;1.50;;;;;;;12.44;90.83;98394.45;102591;1292;600401;-23
2023/08/08 01:39:53;;;;;;;2.40;1.50;;;;;;;12.85;89.44;98397.20;104807;1271;61112;-23
2023/08/08 01:42:23;;;;;;;1.20;1.10;;;;;;;12.86;88.46;98395.18;104865;1266;61051;-23
2023/08/08 01:44:51;;;;;;;2.10;1.80;;;;;;;12.61;89.20;98393.65;104856;1266;72144;-23
2023/08/08 01:55:02;;;;;;;2.20;1.40;;;;;;;13.01;86.98;98385.02;102705;1289;600248;-22
2023/08/08 01:57:30;;;;;;;3.90;1.30;;;;;;;12.74;87.35;98384.05;104854;1264;61177;-21
2023/08/08 01:59:59;;;;;;;3.80;1.10;;;;;;;12.59;87.49;98388.15;104821;1266;61155;-22
2023/08/08 02:02:28;;;;;;;1.80;1.00;;;;;;;12.94;87.23;98394.33;104879;1267;71017;-22
2023/08/08 02:04:56;;;;;;;3.90;1.20;;;;;;;13.33;85.93;98395.80;104870;1270;73195;-22
2023/08/08 02:07:24;;;;;;;1.70;1.10;;;;;;;13.21;85.62;98394.55;104886;1270;71446;-22
2023/08/08 02:17:33;;;;;;;2.00;0.90;;;;;;;13.21;86.94;98406.49;102568;1296;601411;-22
2023/08/08 02:20:01;;;;;;;1.40;0.90;;;;;;;13.48;85.14;98411.52;104819;1268;61171;-22
2023/08/08 02:22:28;;;;;;;1.10;1.00;;;;;;;13.39;84.82;98410.55;104809;1267;60961;-21
2023/08/08 02:24:56;;;;;;;1.60;1.00;;;;;;;13.19;84.84;98412.21;104812;1271;71014;-21
2023/08/08 02:27:23;;;;;;;1.70;1.10;;;;;;;12.91;85.57;98416.51;104888;1267;74299;-22
2023/08/08 02:29:51;;;;;;;2.10;1.00;;;;;;;12.68;86.35;98414.06;104839;1271;71419;-26
2023/08/08 02:32:19;;;;;;;0.90;0.80;;;;;;;13.09;85.98;98416.17;103014;1264;2783880;-24
2023/08/08 02:42:30;;;;;;;1.60;0.90;;;;;;;12.74;86.18;98421.23;102662;1295;600152;-24
2023/08/08 02:52:13;;;;;;;1.20;0.90;;;;;;;13.15;84.80;98421.84;102671;1293;600531;-22
2023/08/08 03:02:19;;;;;;;1.10;1.00;;;;;;;12.42;89.47;98437.48;102553;1292;599431;-22
2023/08/08 03:04:47;;;;;;;3.10;1.10;;;;;;;12.82;87.88;98437.22;104829;1271;61143;-21
2023/08/08 03:07:15;;;;;;;1.00;0.80;;;;;;;12.84;87.27;98441.68;104748;1267;61065;-21
2023/08/08 03:09:42;;;;;;;2.00;1.30;;;;;;;12.62;88.04;98449.99;104736;1273;72336;-23
2023/08/08 03:19:48;;;;;;;1.80;0.90;;;;;;;13.19;85.13;98455.80;102711;1294;600094;-22
2023/08/08 03:22:16;;;;;;;1.70;1.20;;;;;;;13.02;85.72;98463.76;104846;1265;61147;-22
2023/08/08 03:24:44;;;;;;;0.90;0.80;;;;;;;12.95;86.30;98466.76;104823;1266;61142;-21
2023/08/08 03:27:12;;;;;;;0.90;0.80;;;;;;;13.35;85.26;98476.01;104850;1270;71361;-21
2023/08/08 03:29:39;;;;;;;2.60;1.10;;;;;;;13.58;83.72;98477.04;104769;1271;73180;-22
2023/08/08 03:39:46;;;;;;;0.50;0.50;;;;;;;13.24;84.27;98477.98;102681;1292;600329;-21
2023/08/08 03:42:14;;;;;;;0.90;0.80;;;;;;;13.53;83.87;98485.85;104900;1266;61175;-22
2023/08/08 03:44:42;;;;;;;3.70;1.00;;;;;;;13.58;83.29;98489.36;104776;1264;61026;-21
2023/08/08 03:47:09;;;;;;;1.50;0.90;;;;;;;13.55;83.62;98489.96;104794;1266;72249;-23
2023/08/08 03:49:46;;;;;;;2.00;0.80;;;;;;;13.46;84.03;98493.73;104774;1266;74419;-21
2023/08/08 03:52:14;;;;;;;0.90;0.80;;;;;;;13.38;84.33;98499.56;102741;1269;2705787;-25
2023/08/08 03:54:43;;;;;;;1.30;0.80;;;;;;;13.41;85.05;98506.05;104760;1263;61687;-24
2023/08/08 03:57:11;;;;;;;1.30;0.90;;;;;;;14.01;83.71;98511.53;104842;1263;61123;-22
2023/08/08 03:59:38;;;;;;;1.40;1.00;;;;;;;14.18;82.22;98518.12;104852;1263;72269;-21
2023/08/08 04:02:06;;;;;;;2.60;0.90;;;;;;;14.26;81.98;98520.20;104880;1263;73064;-22
2023/08/08 04:04:34;;;;;;;1.30;1.20;;;;;;;14.14;82.05;98524.45;104852;1266;72645;-22
2023/08/08 04:07:02;;;;;;;1.30;0.90;;;;;;;14.09;82.51;98529.26;104922;1266;61690;-23
2023/08/08 04:09:30;;;;;;;3.00;1.10;;;;;;;14.34;82.54;98528.84;104997;1267;61213;-22
2023/08/08 04:19:36;;;;;;;1.70;1.50;;;;;;;14.22;83.38;98546.16;102670;1291;599369;-22
2023/08/08 04:22:04;;;;;;;1.30;1.00;;;;;;;14.07;83.90;98547.48;104824;1267;61588;-21
2023/08/08 04:24:32;;;;;;;1.30;1.00;;;;;;;14.48;83.48;98544.98;104868;1270;61321;-22
2023/08/08 04:26:59;;;;;;;1.10;0.90;;;;;;;14.84;81.58;98543.10;104840;1267;72213;-22
2023/08/08 04:29:27;;;;;;;1.70;1.30;;;;;;;14.87;80.97;98545.07;104723;1272;74301;-21
2023/08/08 04:31:54;;;;;;;2.70;1.50;;;;;;;14.76;81.35;98554.11;104682;1270;71873;-22
2023/08/08 04:34:22;;;;;;;2.50;1.30;;;;;;;14.55;82.46;98556.67;102760;1267;2695496;-22
2023/08/08 04:36:50;;;;;;;1.70;1.00;;;;;;;14.39;83.69;98561.27;104740;1270;61115;-22
2023/08/08 04:39:18;;;;;;;1.60;1.00;;;;;;;14.78;83.18;98558.82;105009;1264;70998;-23
2023/08/08 04:41:45;;;;;;;1.30;1.20;;;;;;;15.22;81.29;98556.36;104845;1264;73216;-23
2023/08/08 04:44:13;;;;;;;2.10;1.50;;;;;;;15.20;80.67;98559.06;104907;1264;71449;-24
2023/08/08 04:54:22;;;;;;;1.10;0.70;;;;;;;14.86;83.15;98572.15;102642;1293;599488;-22
2023/08/08 05:03:13;;;;;;;1.50;1.40;;;;;;;15.93;79.19;98575.27;102677;1292;599582;-22
2023/08/08 05:05:41;;;;;;;4.50;1.50;;;;;;;15.92;79.07;98580.80;104875;1264;61181;-22
2023/08/08 05:08:08;;;;;;;1.50;1.40;;;;;;;15.93;79.46;98578.79;104830;1266;61165;-21
2023/08/08 05:18:15;;;;;;;2.70;1.30;;;;;;;17.07;75.13;98594.35;102562;1295;600123;-22
2023/08/08 05:20:43;;;;;;;1.60;1.50;;;;;;;16.66;76.62;98595.02;104747;1273;61214;-22
2023/08/08 05:23:10;;;;;;;2.30;1.60;;;;;;;16.71;76.88;98596.68;104770;1273;61147;-22
2023/08/08 05:25:38;;;;;;;1.60;1.50;;;;;;;16.68;77.12;98598.24;104795;1269;70047;-22
2023/08/08 05:28:06;;;;;;;1.50;1.40;;;;;;;16.63;77.09;98597.36;108598;1266;73156;-23
2023/08/08 05:30:33;;;;;;;2.10;0.90;;;;;;;16.74;77.01;98595.41;108639;1266;72701;-23
2023/08/08 05:33:01;;;;;;;1.50;1.20;;;;;;;17.42;75.44;98593.31;106573;1269;2770519;-23
2023/08/08 05:35:28;;;;;;;1.90;1.20;;;;;;;17.89;73.65;98595.46;108662;1267;58735;-23
2023/08/08 05:37:56;;;;;;;1.60;1.50;;;;;;;18.18;72.53;98596.98;108601;1272;72253;-23
2023/08/08 05:40:24;;;;;;;1.80;1.30;;;;;;;18.22;72.06;98598.09;108713;1267;73060;-23
2023/08/08 05:42:51;;;;;;;1.50;1.40;;;;;;;17.99;71.99;98600.40;108678;1265;71432;-23
2023/08/08 05:45:19;;;;;;;2.80;1.80;;;;;;;17.45;73.77;98601.23;108695;1266;60080;-23
2023/08/08 05:49:26;;;;;;;2.50;1.80;;;;;;;17.25;74.50;98604.77;103065;1287;601063;-22
2023/08/08 05:59:35;;;;;;;1.40;1.30;;;;;;;17.97;73.24;98606.30;102599;1295;600221;-22
2023/08/08 06:09:41;;;;;;;2.30;1.80;;;;;;;17.41;71.42;98616.71;102644;1296;600172;-22
2023/08/08 06:12:09;;;;;;;4.20;1.80;;;;;;;16.94;74.00;98616.49;105010;1270;61209;-24
2023/08/08 06:14:37;;;;;;;2.20;1.60;;;;;;;16.82;75.50;98620.29;105006;1267;61177;-24
2023/08/08 06:17:05;;;;;;;1.70;1.10;;;;;;;16.91;75.31;98620.88;104836;1279;72214;-23
2023/08/08 06:19:33;;;;;;;1.60;1.50;;;;;;;17.73;74.26;98620.31;104841;1274;74287;-23
2023/08/08 06:29:43;;;;;;;2.90;1.60;;;;;;;17.99;68.33;98615.71;102656;1291;600105;-22
2023/08/08 06:32:11;;;;;;;1.40;1.10;;;;;;;17.56;69.23;98614.26;104860;1273;61148;-21
2023/08/08 06:42:18;;;;;;;1.60;1.50;;;;;;;17.12;71.37;98619.36;103278;1285;599942;-23
2023/08/08 06:44:51;;;;;;;2.00;1.20;;;;;;;17.15;70.36;98620.77;104857;1265;61168;-23
2023/08/08 06:47:19;;;;;;;3.50;1.20;;;;;;;17.38;70.94;98625.69;105033;1269;61250;-23
2023/08/08 06:49:47;;;;;;;4.30;1.20;;;;;;;18.15;68.89;98622.44;104832;1271;70641;-23
2023/08/08 06:59:57;;;;;;;1.50;1.40;;;;;;;17.85;66.38;98627.64;102700;1295;600184;-23
2023/08/08 07:02:25;;;;;;;3.50;1.50;;;;;;;17.61;66.05;98629.70;104869;1269;61243;-22
2023/08/08 07:04:53;;;;;;;4.50;2.90;;;;;;;17.41;67.02;98634.45;108632;1264;58933;-24
2023/08/08 07:07:20;;;;;;;2.90;1.70;;;;;;;17.26;68.51;98640.36;108746;1264;70163;-23
2023/08/08 07:09:48;;;;;;;2.40;1.60;;;;;;;17.28;69.22;98641.17;108671;1264;74353;-23
2023/08/08 07:12:16;;;;;;;3.10;1.60;;;;;;;17.35;68.84;98642.14;108686;1269;72750;-23
2023/08/08 07:14:43;;;;;;;2.40;1.50;;;;;;;17.60;68.56;98644.85;106754;1264;2720792;-23
2023/08/08 07:17:11;;;;;;;2.20;1.50;;;;;;;17.75;68.06;98643.66;108775;1267;59004;-23
2023/08/08 07:19:39;;;;;;;2.70;1.50;;;;;;;17.72;66.96;98645.38;108803;1263;72226;-23
2023/08/08 07:22:06;;;;;;;3.70;2.00;;;;;;;17.61;67.61;98650.90;108862;1263;74287;-23
2023/08/08 07:24:34;;;;;;;3.40;1.30;;;;;;;17.47;67.81;98656.20;108774;1267;72706;-23
2023/08/08 07:27:02;;;;;;;1.70;1.30;;;;;;;17.45;68.34;98657.90;108790;1263;60059;-24
2023/08/08 07:29:30;;;;;;;1.40;1.30;;;;;;;17.38;68.27;98657.89;108818;1262;60057;-23
2023/08/08 07:31:58;;;;;;;1.90;1.30;;;;;;;17.42;68.38;98660.69;108811;1263;71897;-23
2023/08/08 07:34:26;;;;;;;2.80;1.60;;;;;;;17.43;68.17;98657.27;108686;1264;74315;-23
2023/08/08 07:36:54;;;;;;;1.70;1.30;;;;;;;17.37;68.58;98660.80;108758;1263;71401;-23
2023/08/08 07:39:21;;;;;;;1.90;1.00;;;;;;;17.41;68.62;98662.98;108664;1263;60628;-23
2023/08/08 07:41:49;;;;;;;1.70;1.00;;;;;;;18.27;66.12;98663.68;108771;1264;60021;-23
2023/08/08 07:44:17;;;;;;;2.50;1.00;;;;;;;19.19;63.13;98662.48;108787;1263;73055;-23
2023/08/08 07:46:44;;;;;;;1.60;1.10;;;;;;;19.59;61.54;98662.17;108765;1263;74280;-23
2023/08/08 07:49:13;;;;;;;1.20;0.90;;;;;;;19.87;59.61;98661.32;108692;1269;72696;-23
2023/08/08 07:51:40;;;;;;;1.50;1.10;;;;;;;19.92;59.07;98661.08;108756;1264;59342;-23
2023/08/08 07:54:10;;;;;;;2.10;1.30;;;;;;;19.64;59.45;98670.73;108735;1264;60090;-24
2023/08/08 07:56:38;;;;;;;1.10;1.00;;;;;;;19.25;59.21;98673.17;108767;1264;73051;-23
2023/08/08 07:59:05;;;;;;;2.30;1.40;;;;;;;19.05;58.41;98669.84;108791;1263;74386;-23
2023/08/08 08:01:33;;;;;;;1.10;0.90;;;;;;;18.86;58.84;98672.08;108775;1263;72688;-23
2023/08/08 08:04:02;;;;;;;1.70;1.20;;;;;;;18.83;59.12;98677.80;108787;1264;60056;-23
2023/08/08 08:06:30;;;;;;;3.70;1.40;;;;;;;18.99;60.07;98679.53;108674;1264;58791;-23
2023/08/08 08:08:58;;;;;;;1.40;1.20;;;;;;;19.26;60.52;98677.16;108705;1267;73133;-23
2023/08/08 08:11:25;;;;;;;2.40;1.60;;;;;;;19.31;60.07;98680.17;108778;1263;74320;-23
2023/08/08 08:13:53;;;;;;;3.20;1.10;;;;;;;19.17;60.25;98683.50;108751;1264;72666;-23
2023/08/08 08:16:21;;;;;;;3.40;1.70;;;;;;;19.07;57.66;98683.66;108754;1264;60109;-23
2023/08/08 08:18:48;;;;;;;2.80;1.60;;;;;;;18.86;57.49;98686.56;108716;1264;58856;-23
2023/08/08 08:21:17;;;;;;;2.50;1.40;;;;;;;18.80;58.01;98688.00;108709;1263;73106;-24
2023/08/08 08:23:45;;;;;;;6.50;1.70;;;;;;;18.75;58.27;98693.80;108799;1264;74420;-23
2023/08/08 08:26:13;;;;;;;2.70;1.40;;;;;;;18.75;58.42;98691.92;108677;1264;72711;-23
2023/08/08 08:28:41;;;;;;;1.40;1.20;;;;;;;18.55;59.40;98690.02;108754;1264;59535;-23
2023/08/08 08:31:08;;;;;;;2.30;1.40;;;;;;;18.68;59.35;98691.89;108784;1263;59103;-23
2023/08/08 08:33:36;;;;;;;1.30;1.10;;;;;;;18.88;59.95;98695.91;108780;1263;71877;-23
2023/08/08 08:36:04;;;;;;;1.50;1.30;;;;;;;19.01;59.27;98698.42;108720;1263;74504;-23
2023/08/08 08:38:32;;;;;;;3.20;2.90;;;;;;;19.12;58.55;98697.43;108730;1264;72701;-23
2023/08/08 08:41:00;;;;;;;4.00;3.70;;;;;;;19.35;58.06;98695.23;108711;1264;60128;-23
2023/08/08 08:43:27;;;;;;;2.20;2.00;;;;;;;19.49;57.48;98698.41;108774;1267;60062;-23
2023/08/08 08:45:55;;;;;;;2.40;1.60;;;;;;;19.50;57.93;98696.91;108845;1261;71780;-23
2023/08/08 08:48:23;;;;;;;2.00;1.30;;;;;;;19.43;58.36;98695.61;108787;1260;73651;-23
2023/08/08 08:50:50;;;;;;;2.00;1.30;;;;;;;19.16;59.70;98695.51;108846;1260;71814;-23
2023/08/08 08:53:18;;;;;;;1.70;1.20;;;;;;;18.74;61.44;98689.02;108763;1260;60075;-23
2023/08/08 08:55:46;;;;;;;1.50;1.20;;;;;;;18.49;63.64;98687.11;108886;1260;58809;-23
2023/08/08 08:58:16;;;;;;;1.80;1.20;;;;;;;18.36;65.31;98687.28;108864;1260;73068;-23
2023/08/08 09:00:45;;;;;;;1.50;1.40;;;;;;;18.18;65.44;98681.59;108729;1260;73231;-23
2023/08/08 09:03:13;;;;;;;2.30;1.50;;;;;;;18.18;66.57;98677.26;108792;1267;72695;-23
2023/08/08 09:05:41;;;;;;;3.20;1.50;;;;;;;18.28;66.50;98676.80;108892;1260;60037;-23
2023/08/08 09:08:11;;;;;;;2.10;1.50;;;;;;;18.49;65.98;98673.64;108808;1260;58905;-23
2023/08/08 09:10:39;;;;;;;1.50;1.30;;;;;;;18.78;62.70;98671.47;108938;1260;73062;-23
2023/08/08 09:13:07;;;;;;;2.00;1.30;;;;;;;19.17;61.28;98671.85;108950;1260;74482;-23
2023/08/08 09:15:34;;;;;;;2.00;1.20;;;;;;;19.59;58.81;98665.06;108754;1260;71489;-23
2023/08/08 09:18:02;;;;;;;2.40;1.40;;;;;;;20.14;58.40;98662.65;108788;1264;60134;-23
2023/08/08 09:20:30;;;;;;;1.70;1.00;;;;;;;20.69;56.00;98656.65;108801;1260;58764;-23
2023/08/08 09:22:58;;;;;;;1.20;1.00;;;;;;;21.25;55.41;98659.20;108905;1260;73119;-23
2023/08/08 09:25:25;;;;;;;4.30;2.10;;;;;;;21.91;54.17;98661.31;108930;1260;74324;-23
2023/08/08 09:27:53;;;;;;;1.50;1.20;;;;;;;22.37;51.88;98661.23;108933;1266;72661;-24
2023/08/08 09:30:21;;;;;;;1.50;1.30;;;;;;;22.36;53.28;98664.02;108893;1260;59451;-23
2023/08/08 09:32:49;;;;;;;2.00;1.10;;;;;;;21.80;55.25;98672.16;108828;1260;59988;-23
2023/08/08 09:35:17;;;;;;;2.10;1.40;;;;;;;21.82;55.83;98671.87;108880;1263;73104;-24
2023/08/08 09:37:44;;;;;;;1.30;1.00;;;;;;;21.81;55.42;98681.90;108812;1263;73078;-23
2023/08/08 09:40:12;;;;;;;1.40;1.20;;;;;;;21.92;55.60;98679.14;108765;1264;72658;-23
2023/08/08 09:42:41;;;;;;;2.20;1.40;;;;;;;22.58;53.85;98674.15;108717;1264;60073;-23
2023/08/08 09:45:09;;;;;;;1.40;1.30;;;;;;;23.34;52.79;98673.39;108805;1262;58770;-23
2023/08/08 09:47:37;;;;;;;2.70;1.50;;;;;;;23.99;50.42;98666.84;108655;1262;73047;-23
2023/08/08 09:50:05;;;;;;;2.30;1.20;;;;;;;24.20;50.79;98665.10;108807;1263;74471;-23
2023/08/08 09:52:34;;;;;;;3.10;1.30;;;;;;;24.40;47.44;98656.00;108695;1264;71486;-23
2023/08/08 09:55:02;;;;;;;1.70;1.10;;;;;;;24.22;47.81;98657.25;108587;1264;59141;-24
2023/08/08 09:57:30;;;;;;;1.70;1.10;;;;;;;23.23;50.30;98655.27;108700;1264;61088;-24
2023/08/08 09:59:58;;;;;;;3.00;1.10;;;;;;;23.47;52.06;98648.85;108756;1262;71881;-24
2023/08/08 10:02:25;;;;;;;1.30;1.00;;;;;;;23.89;49.96;98649.43;108804;1262;74625;-24
2023/08/08 10:04:53;;;;;;;1.60;1.00;;;;;;;23.65;47.80;98650.27;108729;1267;71768;-23
2023/08/08 10:07:23;;;;;;;4.30;1.20;;;;;;;23.55;45.06;98654.67;108755;1264;61107;-23
2023/08/08 10:09:51;;;;;;;2.60;1.40;;;;;;;23.41;46.83;98653.20;108791;1264;60101;-24
2023/08/08 10:12:18;;;;;;;2.50;1.00;;;;;;;23.02;46.39;98656.28;108758;1264;73165;-23
2023/08/08 10:14:46;;;;;;;3.80;1.20;;;;;;;22.87;49.26;98657.13;108691;1263;73204;-23
2023/08/08 10:17:14;;;;;;;3.00;1.90;;;;;;;23.11;49.86;98662.39;108680;1264;71396;-23
2023/08/08 10:19:54;;;;;;;2.60;1.10;;;;;;;23.63;47.75;98670.36;108586;1264;60121;-23
2023/08/08 10:22:23;;;;;;;1.40;1.30;;;;;;;23.41;44.98;98679.89;108468;1262;58871;-23
2023/08/08 10:24:56;;;;;;;3.30;1.10;;;;;;;23.24;43.68;98688.23;108655;1267;71847;-23
2023/08/08 10:27:34;;;;;;;3.20;1.20;;;;;;;23.19;42.47;98688.70;108646;1262;73038;-23
2023/08/08 10:30:07;;;;;;;2.20;1.10;;;;;;;23.00;43.02;98691.45;108730;1263;72741;-23
2023/08/08 10:32:41;;;;;;;1.40;1.00;;;;;;;22.72;43.38;98690.30;108720;1264;58848;-23
2023/08/08 10:35:11;;;;;;;1.30;1.10;;;;;;;23.30;43.42;98688.42;108687;1264;58999;-23
2023/08/08 10:37:39;;;;;;;1.80;1.20;;;;;;;23.49;42.75;98690.20;108601;1264;72269;-23
2023/08/08 10:40:07;;;;;;;3.30;1.60;;;;;;;22.65;45.17;98689.83;108732;1263;73628;-23
2023/08/08 10:42:42;;;;;;;4.30;1.30;;;;;;;22.09;46.91;98695.16;108617;1264;72694;-23
2023/08/08 10:45:14;;;;;;;1.40;1.30;;;;;;;22.00;47.93;98694.02;108657;1263;58899;-23
2023/08/08 10:47:42;;;;;;;2.00;1.30;;;;;;;21.98;49.01;98695.33;108637;1263;59046;-23
2023/08/08 10:50:14;;;;;;;3.20;2.10;;;;;;;21.78;50.06;98695.55;108784;1264;71485;-23
2023/08/08 10:52:54;;;;;;;7.20;3.90;;;;;;;21.78;50.69;98693.91;108630;1264;73357;-23
2023/08/08 10:55:23;;;;;;;3.70;2.00;;;;;;;22.32;49.48;98693.97;108612;1264;72649;-23
2023/08/08 10:58:10;;;;;;;1.60;1.20;;;;;;;22.46;47.32;98691.45;108638;1264;58889;-23
2023/08/08 11:00:39;;;;;;;4.00;2.00;;;;;;;23.59;48.00;98697.74;108668;1263;60036;-23
2023/08/08 11:03:08;;;;;;;1.60;1.30;;;;;;;24.26;44.69;98704.73;108651;1264;73064;-23
2023/08/08 11:05:37;;;;;;;4.60;2.10;;;;;;;24.30;40.52;98698.50;108710;1264;74352;-23
2023/08/08 11:08:05;;;;;;;3.10;2.00;;;;;;;24.14;45.23;98700.83;108614;1264;71392;-23
2023/08/08 11:10:36;;;;;;;3.50;2.40;;;;;;;23.97;46.35;98703.82;108630;1266;60142;-23
2023/08/08 11:13:05;;;;;;;11.60;1.80;;;;;;;23.31;48.48;98709.48;108639;1264;58754;-23
2023/08/08 11:15:33;;;;;;;5.30;1.50;;;;;;;23.10;48.54;98711.90;108608;1263;72579;-23
2023/08/08 11:18:01;;;;;;;5.10;1.90;;;;;;;22.87;49.57;98714.08;108722;1263;73667;-23
2023/08/08 11:20:34;;;;;;;3.70;1.90;;;;;;;23.00;52.24;98714.70;108667;1264;72642;-23
2023/08/08 11:23:01;;;;;;;2.40;1.60;;;;;;;23.07;50.30;98714.66;108645;1264;60098;-23
2023/08/08 11:25:29;;;;;;;2.50;1.60;;;;;;;22.57;50.37;98705.99;108711;1263;60093;-23
2023/08/08 11:27:57;;;;;;;2.20;1.50;;;;;;;22.06;50.61;98702.42;108623;1263;73841;-23
2023/08/08 11:30:28;;;;;;;2.20;1.30;;;;;;;21.85;50.51;98696.33;108621;1263;73044;-23
2023/08/08 11:32:56;;;;;;;1.40;1.30;;;;;;;22.22;50.42;98676.43;108607;1263;72832;-25
2023/08/08 11:35:29;;;;;;;1.60;1.50;;;;;;;22.25;48.35;98672.95;108623;1266;58800;-24
2023/08/08 11:37:58;;;;;;;2.20;1.40;;;;;;;21.85;49.29;98670.64;108741;1263;58805;-24
2023/08/08 11:40:27;;;;;;;1.40;1.30;;;;;;;21.49;49.64;98667.81;108583;1263;72581;-24
2023/08/08 11:42:56;;;;;;;3.80;1.80;;;;;;;21.35;52.23;98665.80;108472;1263;74504;-24
2023/08/08 11:45:24;;;;;;;2.60;1.70;;;;;;;21.36;54.30;98670.40;108405;1263;72674;-24
2023/08/08 11:47:53;;;;;;;2.00;1.50;;;;;;;21.36;55.23;98675.25;108716;1263;60109;-24
2023/08/08 11:50:27;;;;;;;2.60;1.70;;;;;;;21.45;55.22;98682.00;108446;1263;60089;-24
2023/08/08 11:52:54;;;;;;;1.50;1.40;;;;;;;21.56;52.22;98688.92;108608;1264;73775;-24
2023/08/08 11:55:29;;;;;;;2.00;1.40;;;;;;;21.85;52.38;98694.48;108640;1263;74998;-24
2023/08/08 11:57:56;;;;;;;2.90;1.60;;;;;;;22.03;52.20;98694.21;108308;1264;71443;-25
2023/08/08 12:00:27;;;;;;;2.80;1.40;;;;;;;22.06;50.15;98695.20;108719;1263;60175;-24
2023/08/08 12:02:55;;;;;;;3.40;1.30;;;;;;;21.82;49.64;98701.02;108516;1263;60091;-24
2023/08/08 12:05:23;;;;;;;2.10;1.60;;;;;;;21.54;50.09;98705.02;108705;1263;73985;-24
2023/08/08 12:07:51;;;;;;;1.40;1.30;;;;;;;21.39;50.41;98704.54;108775;1263;73206;-24
2023/08/08 12:10:22;;;;;;;2.60;1.40;;;;;;;21.06;51.29;98707.29;108679;1264;71850;-24
2023/08/08 12:12:55;;;;;;;1.20;1.10;;;;;;;21.02;51.04;98712.62;108564;1263;60084;-24
2023/08/08 12:15:22;;;;;;;1.60;1.30;;;;;;;20.64;51.48;98713.25;108616;1264;60115;-24
2023/08/08 12:17:50;;;;;;;1.40;1.00;;;;;;;20.69;52.50;98720.75;108703;1263;72607;-24
2023/08/08 12:20:19;;;;;;;2.70;1.60;;;;;;;20.59;52.58;98718.07;108621;1263;74322;-24
2023/08/08 12:22:47;;;;;;;5.00;1.30;;;;;;;20.73;52.78;98716.98;108613;1263;72667;-24
2023/08/08 12:25:15;;;;;;;2.20;1.10;;;;;;;20.86;52.28;98716.98;108731;1264;58822;-24
2023/08/08 12:27:42;;;;;;;3.30;1.30;;;;;;;20.83;51.65;98717.66;108751;1263;58750;-24
2023/08/08 12:30:11;;;;;;;1.70;1.60;;;;;;;20.81;51.43;98714.25;108756;1263;73825;-24
2023/08/08 12:32:39;;;;;;;1.60;1.40;;;;;;;20.90;51.24;98709.95;109114;1256;74485;-24
2023/08/08 12:35:07;;;;;;;1.70;1.20;;;;;;;21.23;50.42;98711.09;109064;1257;72700;-24
2023/08/08 12:37:35;;;;;;;2.00;1.20;;;;;;;21.21;49.30;98708.36;109041;1257;60058;-24
2023/08/08 12:40:03;;;;;;;4.20;1.50;;;;;;;21.17;50.68;98710.16;109010;1257;59120;-24
2023/08/08 12:42:32;;;;;;;2.00;1.20;;;;;;;21.11;50.38;98714.99;108908;1257;73950;-24
2023/08/08 12:45:00;;;;;;;1.80;1.40;;;;;;;20.70;52.90;98710.95;109045;1257;74277;-24
2023/08/08 12:47:29;;;;;;;2.60;1.30;;;;;;;20.49;54.17;98716.85;109080;1257;72671;-24
2023/08/08 12:49:57;;;;;;;3.20;1.70;;;;;;;20.46;53.89;98717.41;109056;1257;58865;-24
2023/08/08 12:52:24;;;;;;;2.10;1.10;;;;;;;20.47;54.80;98729.17;109088;1257;60033;-24
2023/08/08 12:54:53;;;;;;;2.80;1.40;;;;;;;20.44;55.51;98730.05;109077;1257;73848;-24
2023/08/08 12:57:20;;;;;;;2.30;1.10;;;;;;;20.45;56.54;98730.42;109082;1257;74320;-24
2023/08/08 12:59:49;;;;;;;6.40;0.90;;;;;;;20.53;54.70;98721.95;108958;1257;71541;-24
2023/08/08 13:02:17;;;;;;;5.60;1.20;;;;;;;20.50;52.88;98721.70;109052;1257;58961;-24
2023/08/08 13:04:44;;;;;;;1.20;1.00;;;;;;;20.53;54.35;98731.75;109110;1257;58779;-24
2023/08/08 13:07:12;;;;;;;2.10;1.10;;;;;;;20.48;53.99;98735.88;109085;1257;73883;-24
2023/08/08 13:09:40;;;;;;;1.60;1.00;;;;;;;20.41;53.19;98741.23;109100;1257;73261;-24
2023/08/08 13:12:08;;;;;;;2.20;1.10;;;;;;;20.27;52.77;98747.14;109051;1257;72635;-24
2023/08/08 13:14:36;;;;;;;2.70;1.00;;;;;;;20.15;53.60;98746.59;109054;1257;59450;-24
2023/08/08 13:17:04;;;;;;;3.90;1.00;;;;;;;20.24;53.85;98741.51;109007;1257;58789;-24
2023/08/08 13:19:31;;;;;;;1.20;0.80;;;;;;;20.55;50.29;98738.39;109007;1257;72608;-24
2023/08/08 13:21:59;;;;;;;3.60;0.90;;;;;;;20.81;46.86;98740.73;109060;1257;73020;-24
2023/08/08 13:24:27;;;;;;;0.90;0.70;;;;;;;21.10;46.99;98736.49;109079;1257;71486;-24
2023/08/08 13:26:55;;;;;;;2.20;0.80;;;;;;;21.26;47.19;98734.63;109049;1257;60074;-24
2023/08/08 13:29:22;;;;;;;2.80;1.20;;;;;;;21.31;47.80;98731.74;109096;1257;58774;-24
2023/08/08 13:31:50;;;;;;;2.40;1.00;;;;;;;21.38;47.88;98738.11;109096;1257;72639;-24
2023/08/08 13:34:20;;;;;;;3.70;0.90;;;;;;;21.56;47.69;98735.06;109114;1257;73179;-24
2023/08/08 13:36:49;;;;;;;1.70;0.90;;;;;;;21.64;47.08;98739.27;108939;1259;72705;-24
2023/08/08 13:39:18;;;;;;;1.90;1.00;;;;;;;21.61;47.38;98746.23;108976;1259;58835;-24
2023/08/08 13:41:49;;;;;;;3.70;0.80;;;;;;;21.16;49.55;98744.65;108969;1258;59146;-24
2023/08/08 13:44:19;;;;;;;3.00;1.00;;;;;;;20.81;49.82;98749.48;108944;1259;72659;-24
2023/08/08 13:46:51;;;;;;;2.90;1.20;;;;;;;20.54;52.33;98762.39;109023;1258;74373;-24
2023/08/08 13:49:20;;;;;;;2.40;1.10;;;;;;;20.38;54.42;98765.89;108938;1259;73829;-24
2023/08/08 13:51:51;;;;;;;4.00;1.20;;;;;;;20.20;54.79;98764.55;109038;1258;60233;-24
2023/08/08 13:54:21;;;;;;;2.40;1.10;;;;;;;20.06;55.09;98768.00;109057;1259;60051;-24
2023/08/08 13:56:51;;;;;;;1.20;0.90;;;;;;;19.88;55.76;98766.98;108922;1258;71671;-24
2023/08/08 13:59:21;;;;;;;4.00;1.20;;;;;;;19.64;56.10;98767.15;109014;1258;75560;-24
2023/08/08 14:01:52;;;;;;;1.80;1.00;;;;;;;19.61;57.31;98770.99;108995;1259;72651;-24
2023/08/08 14:04:22;;;;;;;1.00;0.80;;;;;;;19.55;57.67;98771.91;109003;1259;58803;-24
2023/08/08 14:06:52;;;;;;;2.40;1.10;;;;;;;19.48;58.49;98775.10;109017;1258;60148;-24
2023/08/08 14:09:22;;;;;;;1.70;1.00;;;;;;;19.46;59.20;98776.67;108987;1258;73856;-24
2023/08/08 14:11:53;;;;;;;1.50;0.80;;;;;;;19.42;59.69;98772.25;109032;1259;73194;-24
2023/08/08 14:14:24;;;;;;;3.20;1.00;;;;;;;19.36;61.94;98782.67;108938;1259;72717;-24
2023/08/08 14:16:54;;;;;;;3.80;1.10;;;;;;;19.30;62.60;98786.88;109021;1259;58871;-24